createdAt,value
2022-08-22T00:02:53.534Z,25.23
2022-08-22T00:02:56.067Z,25.31
2022-08-22T00:03:06.551Z,22.95
2022-08-22T00:03:15.813Z,22.05
2022-08-22T00:06:06.305Z,21.99
2022-08-22T00:08:57.360Z,21.97
2022-08-22T00:11:49.825Z,21.94
2022-08-22T00:14:38.870Z,21.92
2022-08-22T00:17:36.505Z,21.90
2022-08-22T00:20:17.200Z,21.87
2022-08-22T00:22:58.985Z,21.85
2022-08-22T00:25:51.069Z,21.86
2022-08-22T00:28:32.528Z,21.84
2022-08-22T00:31:19.918Z,21.83
2022-08-22T00:34:01.781Z,21.79
2022-08-22T00:36:40.931Z,21.76
2022-08-22T00:39:21.584Z,21.74
2022-08-22T00:42:32.383Z,21.73
2022-08-22T00:45:43.920Z,21.72
2022-08-22T00:48:35.974Z,21.69
2022-08-22T00:51:40.988Z,21.68
2022-08-22T00:54:32.345Z,21.62
2022-08-22T00:57:44.540Z,21.65
2022-08-22T01:00:28.282Z,21.58
2022-08-22T01:03:21.324Z,21.58
2022-08-22T01:06:11.667Z,21.57
2022-08-22T01:09:00.170Z,21.57
2022-08-22T01:12:16.846Z,21.58
2022-08-22T01:15:00.049Z,21.54
2022-08-22T01:18:03.838Z,21.59
2022-08-22T01:21:24.198Z,21.61
2022-08-22T01:25:05.971Z,21.66
2022-08-22T01:28:07.594Z,21.69
2022-08-22T01:31:29.978Z,21.71
2022-08-22T01:34:40.205Z,21.67
2022-08-22T01:37:58.666Z,21.68
2022-08-22T01:41:06.426Z,21.69
2022-08-22T01:44:10.814Z,21.69
2022-08-22T01:46:59.907Z,21.67
2022-08-22T01:49:41.274Z,21.67
2022-08-22T01:52:22.353Z,21.65
2022-08-22T01:55:02.965Z,21.62
2022-08-22T01:57:51.437Z,21.63
2022-08-22T02:00:35.064Z,21.56
2022-08-22T02:03:25.191Z,21.51
2022-08-22T02:06:08.632Z,21.44
2022-08-22T02:08:54.972Z,21.39
2022-08-22T02:11:41.823Z,21.37
2022-08-22T02:14:30.211Z,21.31
2022-08-22T02:17:15.990Z,21.27
2022-08-22T02:19:59.461Z,21.22
2022-08-22T02:22:57.061Z,21.21
2022-08-22T02:25:36.263Z,21.18
2022-08-22T02:28:13.986Z,21.15
2022-08-22T02:30:54.438Z,21.13
2022-08-22T02:33:50.001Z,21.09
2022-08-22T02:36:37.799Z,21.07
2022-08-22T02:39:26.410Z,21.04
2022-08-22T02:42:08.143Z,21.01
2022-08-22T02:44:49.654Z,20.98
2022-08-22T02:47:33.274Z,20.99
2022-08-22T02:50:13.090Z,21.08
2022-08-22T02:53:06.680Z,20.96
2022-08-22T02:55:54.090Z,20.91
2022-08-22T02:58:38.782Z,20.86
2022-08-22T03:01:36.982Z,20.86
2022-08-22T03:04:37.455Z,20.84
2022-08-22T03:07:24.537Z,20.79
2022-08-22T03:10:04.913Z,20.78
2022-08-22T03:12:56.965Z,20.75
2022-08-22T03:15:38.022Z,20.73
2022-08-22T03:18:27.127Z,20.80
2022-08-22T03:21:20.463Z,20.71
2022-08-22T03:24:02.662Z,20.65
2022-08-22T03:26:46.406Z,20.61
2022-08-22T03:29:26.191Z,20.58
2022-08-22T03:32:12.896Z,20.57
2022-08-22T03:34:59.175Z,20.56
2022-08-22T03:37:42.866Z,20.53
2022-08-22T03:40:24.908Z,20.59
2022-08-22T03:43:27.174Z,20.49
2022-08-22T03:46:42.682Z,20.47
2022-08-22T03:50:15.164Z,20.44
2022-08-22T03:53:30.181Z,20.41
2022-08-22T03:57:06.652Z,20.37
2022-08-22T04:00:19.758Z,20.33
2022-08-22T04:03:30.785Z,20.28
2022-08-22T04:06:39.191Z,20.28
2022-08-22T04:09:55.058Z,20.27
2022-08-22T04:12:59.172Z,20.26
2022-08-22T04:15:57.386Z,20.22
2022-08-22T04:19:15.467Z,20.24
2022-08-22T04:22:15.276Z,20.27
2022-08-22T04:25:02.645Z,20.29
2022-08-22T04:27:45.124Z,20.33
2022-08-22T04:30:31.585Z,20.38
2022-08-22T04:33:15.038Z,20.41
2022-08-22T04:36:02.841Z,20.47
2022-08-22T04:38:42.970Z,20.51
2022-08-22T04:41:22.210Z,20.54
2022-08-22T04:44:00.774Z,20.58
2022-08-22T04:46:47.492Z,20.60
2022-08-22T04:49:28.148Z,20.63
2022-08-22T04:52:18.531Z,20.65
2022-08-22T04:55:04.650Z,20.72
2022-08-22T04:58:00.003Z,20.82
2022-08-22T05:00:51.803Z,20.93
2022-08-22T05:03:28.917Z,21.03
2022-08-22T05:06:06.266Z,21.16
2022-08-22T05:08:46.146Z,21.25
2022-08-22T05:11:29.676Z,21.33
2022-08-22T05:14:08.454Z,21.44
2022-08-22T05:16:47.392Z,21.54
2022-08-22T05:19:31.684Z,21.64
2022-08-22T05:22:08.048Z,21.75
2022-08-22T05:24:49.096Z,21.82
2022-08-22T05:27:26.522Z,21.91
2022-08-22T05:30:03.525Z,21.97
2022-08-22T05:32:46.897Z,22.05
2022-08-22T05:35:26.981Z,22.11
2022-08-22T05:38:01.419Z,22.22
2022-08-22T05:40:40.675Z,22.32
2022-08-22T05:43:14.567Z,22.42
2022-08-22T05:45:49.459Z,22.57
2022-08-22T05:48:31.775Z,22.70
2022-08-22T05:51:16.268Z,22.85
2022-08-22T05:54:04.426Z,23.00
2022-08-22T05:56:44.018Z,23.08
2022-08-22T05:59:24.978Z,23.20
2022-08-22T06:02:07.409Z,23.33
2022-08-22T06:04:50.241Z,23.49
2022-08-22T06:07:29.504Z,23.58
2022-08-22T06:10:21.297Z,23.70
2022-08-22T06:13:11.365Z,23.90
2022-08-22T06:15:53.147Z,24.06
2022-08-22T06:18:29.443Z,24.21
2022-08-22T06:21:06.120Z,24.34
2022-08-22T06:23:45.879Z,24.50
2022-08-22T06:26:21.550Z,24.63
2022-08-22T06:29:00.957Z,24.71
2022-08-22T06:31:37.987Z,24.81
2022-08-22T06:34:15.430Z,24.96
2022-08-22T06:36:51.576Z,25.08
2022-08-22T06:39:28.280Z,25.16
2022-08-22T06:42:05.929Z,25.26
2022-08-22T06:44:45.733Z,25.38
2022-08-22T06:47:23.744Z,25.48
2022-08-22T06:50:03.179Z,25.58
2022-08-22T06:52:54.908Z,25.82
2022-08-22T06:55:31.440Z,25.96
2022-08-22T06:58:07.699Z,26.09
2022-08-22T07:00:51.106Z,26.22
2022-08-22T07:03:42.354Z,26.42
2022-08-22T07:06:18.763Z,26.57
2022-08-22T07:08:57.794Z,26.70
2022-08-22T07:11:34.328Z,26.82
2022-08-22T07:14:11.406Z,27.00
2022-08-22T07:16:50.015Z,27.15
2022-08-22T07:19:26.517Z,27.22
2022-08-22T07:22:11.246Z,27.38
2022-08-22T07:24:49.612Z,27.55
2022-08-22T07:27:32.340Z,27.73
2022-08-22T07:30:10.852Z,28.00
2022-08-22T07:32:55.485Z,28.26
2022-08-22T07:35:37.589Z,28.43
2022-08-22T07:38:27.507Z,28.62
2022-08-22T07:41:11.580Z,28.88
2022-08-22T07:43:50.531Z,29.08
2022-08-22T07:46:33.275Z,29.30
2022-08-22T07:49:16.660Z,29.50
2022-08-22T07:51:54.339Z,29.65
2022-08-22T07:54:39.332Z,29.79
2022-08-22T07:57:17.589Z,30.03
2022-08-22T07:59:55.108Z,30.36
2022-08-22T08:02:29.983Z,30.54
2022-08-22T08:05:05.643Z,30.70
2022-08-22T08:07:44.854Z,30.87
2022-08-22T08:10:24.564Z,31.18
2022-08-22T08:13:04.294Z,31.46
2022-08-22T08:15:40.244Z,31.90
2022-08-22T08:18:22.218Z,32.29
2022-08-22T08:21:02.240Z,32.74
2022-08-22T08:23:41.634Z,32.92
2022-08-22T08:26:18.649Z,33.22
2022-08-22T08:28:54.512Z,33.71
2022-08-22T08:31:32.897Z,34.39
2022-08-22T08:34:10.624Z,35.39
2022-08-22T08:36:52.712Z,36.44
2022-08-22T08:39:35.305Z,36.63
2022-08-22T08:43:03.480Z,36.73
2022-08-22T08:46:19.912Z,36.05
2022-08-22T08:49:29.676Z,35.62
2022-08-22T08:52:32.496Z,36.55
2022-08-22T08:55:22.571Z,37.69
2022-08-22T08:58:10.147Z,38.95
2022-08-22T09:00:57.591Z,40.04
2022-08-22T09:04:04.341Z,41.09
2022-08-22T09:06:59.342Z,41.27
2022-08-22T09:09:52.724Z,40.98
2022-08-22T09:13:11.794Z,41.57
2022-08-22T09:19:12.979Z,41.07
2022-08-22T09:22:14.197Z,40.18
2022-08-22T09:25:23.633Z,39.06
2022-08-22T09:28:02.715Z,38.50
2022-08-22T09:30:54.491Z,38.60
2022-08-22T09:33:39.603Z,39.44
2022-08-22T09:36:21.086Z,40.72
2022-08-22T09:38:59.909Z,40.79
2022-08-22T09:41:47.123Z,40.07
2022-08-22T09:44:39.673Z,38.91
2022-08-22T09:47:24.933Z,37.72
2022-08-22T09:50:12.638Z,36.59
2022-08-22T09:53:01.998Z,35.57
2022-08-22T09:55:45.846Z,34.63
2022-08-22T09:58:28.385Z,33.88
2022-08-22T10:01:09.682Z,33.15
2022-08-22T10:04:20.031Z,32.45
2022-08-22T10:07:00.780Z,31.83
2022-08-22T10:09:47.597Z,31.39
2022-08-22T10:12:36.215Z,30.98
2022-08-22T10:15:22.471Z,30.59
2022-08-22T10:18:12.371Z,30.23
2022-08-22T10:20:57.658Z,29.89
2022-08-22T10:23:38.712Z,29.62
2022-08-22T10:26:22.996Z,29.61
2022-08-22T10:29:28.514Z,29.54
2022-08-22T10:32:17.076Z,29.66
2022-08-22T10:34:56.699Z,29.86
2022-08-22T10:37:36.744Z,30.18
2022-08-22T10:40:17.979Z,30.59
2022-08-22T10:42:55.342Z,31.37
2022-08-22T10:45:37.297Z,32.18
2022-08-22T10:48:41.157Z,34.27
2022-08-22T10:51:24.800Z,34.86
2022-08-22T10:54:20.043Z,35.27
2022-08-22T10:57:03.802Z,36.92
2022-08-22T10:59:46.081Z,38.69
2022-08-22T11:02:45.926Z,40.56
2022-08-22T11:05:31.218Z,41.89
2022-08-22T11:08:37.187Z,43.70
2022-08-22T11:11:21.856Z,44.25
2022-08-22T11:14:16.584Z,44.64
2022-08-22T11:16:59.794Z,44.44
2022-08-22T11:19:55.780Z,43.60
2022-08-22T11:22:36.723Z,42.46
2022-08-22T11:25:35.837Z,41.15
2022-08-22T11:28:30.690Z,39.87
2022-08-22T11:31:16.448Z,38.64
2022-08-22T11:33:56.721Z,37.62
2022-08-22T11:36:38.345Z,36.88
2022-08-22T11:39:25.189Z,36.16
2022-08-22T11:42:06.985Z,35.67
2022-08-22T11:44:50.141Z,35.40
2022-08-22T11:47:28.991Z,35.29
2022-08-22T11:50:13.906Z,35.22
2022-08-22T11:53:20.098Z,35.13
2022-08-22T11:56:12.348Z,34.95
2022-08-22T11:58:56.594Z,34.80
2022-08-22T12:01:39.004Z,34.62
2022-08-22T12:04:21.622Z,34.34
2022-08-22T12:07:03.200Z,33.93
2022-08-22T12:09:50.853Z,33.47
2022-08-22T12:12:53.118Z,33.02
2022-08-22T12:15:33.861Z,32.67
2022-08-22T12:18:41.681Z,32.48
2022-08-22T12:21:38.769Z,32.30
2022-08-22T12:24:32.469Z,32.10
2022-08-22T12:27:48.292Z,32.00
2022-08-22T12:30:38.053Z,31.83
2022-08-22T12:33:37.631Z,31.71
2022-08-22T12:36:51.199Z,31.58
2022-08-22T12:39:44.302Z,31.37
2022-08-22T12:42:47.395Z,31.15
2022-08-22T12:45:47.358Z,30.91
2022-08-22T12:48:41.819Z,30.69
2022-08-22T12:51:31.610Z,30.52
2022-08-22T12:54:44.803Z,30.33
2022-08-22T12:57:28.887Z,30.06
2022-08-22T13:00:26.797Z,29.88
2022-08-22T13:03:09.685Z,29.73
2022-08-22T13:05:56.248Z,29.60
2022-08-22T13:08:37.293Z,29.44
2022-08-22T13:11:23.364Z,29.35
2022-08-22T13:14:00.596Z,29.25
2022-08-22T13:16:39.133Z,29.19
2022-08-22T13:19:24.006Z,29.14
2022-08-22T13:22:05.425Z,29.13
2022-08-22T13:24:52.529Z,29.07
2022-08-22T13:27:33.788Z,29.02
2022-08-22T13:30:18.645Z,29.04
2022-08-22T13:32:54.566Z,29.12
2022-08-22T13:35:37.286Z,29.23
2022-08-22T13:38:25.622Z,29.36
2022-08-22T13:41:03.408Z,29.52
2022-08-22T13:43:55.948Z,29.73
2022-08-22T13:46:31.529Z,29.85
2022-08-22T13:49:13.638Z,29.94
2022-08-22T13:51:58.459Z,30.04
2022-08-22T13:54:58.997Z,30.19
2022-08-22T13:57:38.125Z,30.31
2022-08-22T14:00:56.523Z,30.51
2022-08-22T14:03:41.138Z,30.59
2022-08-22T14:06:35.506Z,30.85
2022-08-22T14:09:29.462Z,30.85
2022-08-22T14:12:12.541Z,30.83
2022-08-22T14:14:52.384Z,30.81
2022-08-22T14:17:32.224Z,30.88
2022-08-22T14:20:13.215Z,30.95
2022-08-22T14:23:12.285Z,30.96
2022-08-22T14:25:49.187Z,30.82
2022-08-22T14:28:27.439Z,30.75
2022-08-22T14:31:08.214Z,30.74
2022-08-22T14:33:48.366Z,30.64
2022-08-22T14:36:27.339Z,30.52
2022-08-22T14:39:08.437Z,30.47
2022-08-22T14:41:56.602Z,30.42
2022-08-22T14:44:39.538Z,30.35
2022-08-22T14:47:32.589Z,30.19
2022-08-22T14:50:40.343Z,30.04
2022-08-22T14:53:26.631Z,29.84
2022-08-22T14:56:04.631Z,29.64
2022-08-22T14:58:51.141Z,29.50
2022-08-22T15:01:26.514Z,29.31
2022-08-22T15:04:07.382Z,29.13
2022-08-22T15:06:48.273Z,29.00
2022-08-22T15:09:36.571Z,28.82
2022-08-22T15:12:25.446Z,28.67
2022-08-22T15:15:04.719Z,28.50
2022-08-22T15:17:44.067Z,28.42
2022-08-22T15:20:35.268Z,28.39
2022-08-22T15:23:20.903Z,28.34
2022-08-22T15:26:02.066Z,28.26
2022-08-22T15:28:52.655Z,28.20
2022-08-22T15:31:28.852Z,28.11
2022-08-22T15:34:14.026Z,28.03
2022-08-22T15:37:08.471Z,28.00
2022-08-22T15:40:11.999Z,27.99
2022-08-22T15:42:48.838Z,27.90
2022-08-22T15:45:34.020Z,27.82
2022-08-22T15:48:27.429Z,27.78
2022-08-22T15:51:09.912Z,27.72
2022-08-22T15:54:16.386Z,27.73
2022-08-22T15:57:16.641Z,27.62
2022-08-22T15:59:57.820Z,27.53
2022-08-22T16:02:35.718Z,27.48
2022-08-22T16:05:29.077Z,27.48
2022-08-22T16:08:06.241Z,27.41
2022-08-22T16:10:42.874Z,27.34
2022-08-22T16:13:38.166Z,27.31
2022-08-22T16:16:35.541Z,27.26
2022-08-22T16:19:19.750Z,27.22
2022-08-22T16:22:12.382Z,27.17
2022-08-22T16:25:10.843Z,27.08
2022-08-22T16:27:58.888Z,27.03
2022-08-22T16:30:36.472Z,26.91
2022-08-22T16:33:18.294Z,26.83
2022-08-22T16:36:43.089Z,26.82
2022-08-22T16:39:38.720Z,26.74
2022-08-22T16:42:35.423Z,26.70
2022-08-22T16:45:16.788Z,26.62
2022-08-22T16:47:56.711Z,26.60
2022-08-22T16:50:37.368Z,26.60
2022-08-22T16:53:33.297Z,26.58
2022-08-22T16:56:25.131Z,26.57
2022-08-22T16:59:23.724Z,26.54
2022-08-22T17:02:16.509Z,26.50
2022-08-22T17:05:04.439Z,26.45
2022-08-22T17:07:51.926Z,26.38
2022-08-22T17:10:43.418Z,26.32
2022-08-22T17:13:27.688Z,26.28
2022-08-22T17:16:14.440Z,26.22
2022-08-22T17:19:00.665Z,26.17
2022-08-22T17:21:41.693Z,26.12
2022-08-22T17:24:35.226Z,26.06
2022-08-22T17:27:18.800Z,26.03
2022-08-22T17:30:03.151Z,26.00
2022-08-22T17:32:59.865Z,25.96
2022-08-22T17:35:45.643Z,25.90
2022-08-22T17:38:32.524Z,25.85
2022-08-22T17:41:18.751Z,25.78
2022-08-22T17:44:00.811Z,25.75
2022-08-22T17:46:46.001Z,25.71
2022-08-22T17:49:49.715Z,25.69
2022-08-22T17:52:31.319Z,25.61
2022-08-22T17:55:15.724Z,25.55
2022-08-22T17:57:53.296Z,25.52
2022-08-22T18:00:31.516Z,25.50
2022-08-22T18:03:14.484Z,25.48
2022-08-22T18:05:52.702Z,25.46
2022-08-22T18:09:13.349Z,25.43
2022-08-22T18:11:38.816Z,25.39
2022-08-22T18:14:26.043Z,25.35
2022-08-22T18:17:01.130Z,25.30
2022-08-22T18:19:52.828Z,25.28
2022-08-22T18:22:31.859Z,25.24
2022-08-22T18:25:12.381Z,25.22
2022-08-22T18:27:52.351Z,25.19
2022-08-22T18:30:30.704Z,25.16
2022-08-22T18:33:13.277Z,25.16
2022-08-22T18:35:54.732Z,25.15
2022-08-22T18:38:33.587Z,25.12
2022-08-22T18:41:14.702Z,25.09
2022-08-22T18:43:50.034Z,25.06
2022-08-22T18:46:42.688Z,25.06
2022-08-22T18:49:48.425Z,25.05
2022-08-22T18:52:35.558Z,25.00
2022-08-22T18:55:45.053Z,24.99
2022-08-22T18:58:52.535Z,24.94
2022-08-22T19:01:51.054Z,24.89
2022-08-22T19:04:46.203Z,24.86
2022-08-22T19:07:51.219Z,24.79
2022-08-22T19:10:35.615Z,24.72
2022-08-22T19:13:26.893Z,24.67
2022-08-22T19:16:15.557Z,24.62
2022-08-22T19:18:55.916Z,24.56
2022-08-22T19:21:48.688Z,24.51
2022-08-22T19:24:58.407Z,24.50
2022-08-22T19:27:34.634Z,24.42
2022-08-22T19:30:29.440Z,24.38
2022-08-22T19:33:06.901Z,24.32
2022-08-22T19:36:06.801Z,24.30
2022-08-22T19:39:00.164Z,24.24
2022-08-22T19:41:52.717Z,24.18
2022-08-22T19:44:40.092Z,24.13
2022-08-22T19:47:32.801Z,24.09
2022-08-22T19:50:14.877Z,24.02
2022-08-22T19:53:05.220Z,23.99
2022-08-22T19:56:05.847Z,23.96
2022-08-22T19:58:56.165Z,23.88
2022-08-22T20:01:56.464Z,23.85
2022-08-22T20:04:57.443Z,23.83
2022-08-22T20:07:43.792Z,23.76
2022-08-22T20:10:28.343Z,23.74
2022-08-22T20:13:07.623Z,23.69
2022-08-22T20:16:04.759Z,23.69
2022-08-22T20:19:06.683Z,23.66
2022-08-22T20:21:55.053Z,23.62
2022-08-22T20:24:39.991Z,23.57
2022-08-22T20:27:16.510Z,23.53
2022-08-22T20:29:55.891Z,23.52
2022-08-22T20:32:31.629Z,23.49
2022-08-22T20:35:07.795Z,23.43
2022-08-22T20:38:05.685Z,23.41
2022-08-22T20:40:57.027Z,23.36
2022-08-22T20:43:36.816Z,23.34
2022-08-22T20:46:27.557Z,23.32
2022-08-22T20:49:02.227Z,23.25
2022-08-22T20:51:37.273Z,23.21
2022-08-22T20:54:19.930Z,23.19
2022-08-22T20:56:55.990Z,23.15
2022-08-22T20:59:40.214Z,23.11
2022-08-22T21:02:20.362Z,23.06
2022-08-22T21:05:00.802Z,23.04
2022-08-22T21:07:40.301Z,23.00
2022-08-22T21:10:37.266Z,22.99
2022-08-22T21:13:12.998Z,22.94
2022-08-22T21:15:50.227Z,22.91
2022-08-22T21:18:33.137Z,22.89
2022-08-22T21:21:09.936Z,22.86
2022-08-22T21:23:59.934Z,22.82
2022-08-22T21:26:40.863Z,22.80
2022-08-22T21:29:23.610Z,22.79
2022-08-22T21:32:04.589Z,22.76
2022-08-22T21:34:43.457Z,22.73
2022-08-22T21:37:19.514Z,22.67
2022-08-22T21:40:01.561Z,22.64
2022-08-22T21:42:38.717Z,22.60
2022-08-22T21:45:26.451Z,22.56
2022-08-22T21:48:00.486Z,22.54
2022-08-22T21:50:38.581Z,22.53
2022-08-22T21:53:28.742Z,22.51
2022-08-22T21:56:14.831Z,22.52
2022-08-22T21:58:49.621Z,22.45
2022-08-22T22:01:31.485Z,22.42
2022-08-22T22:04:07.971Z,22.42
2022-08-22T22:06:41.861Z,22.38
2022-08-22T22:09:15.671Z,22.36
2022-08-22T22:11:53.603Z,22.33
2022-08-22T22:14:30.699Z,22.28
2022-08-22T22:17:04.370Z,22.25
2022-08-22T22:19:41.917Z,22.21
2022-08-22T22:22:15.811Z,22.19
2022-08-22T22:24:52.093Z,22.16
2022-08-22T22:27:30.880Z,22.09
2022-08-22T22:30:05.319Z,22.08
2022-08-22T22:32:43.195Z,22.04
2022-08-22T22:35:20.963Z,22.02
2022-08-22T22:37:54.614Z,21.99
2022-08-22T22:40:28.397Z,21.97
2022-08-22T22:43:04.039Z,21.93
2022-08-22T22:45:39.952Z,21.89
2022-08-22T22:48:23.826Z,21.87
2022-08-22T22:50:59.587Z,21.84
2022-08-22T22:53:40.132Z,21.79
2022-08-22T22:56:16.561Z,21.75
2022-08-22T22:58:59.289Z,21.71
2022-08-22T23:01:38.223Z,21.69
2022-08-22T23:04:16.706Z,21.67
2022-08-22T23:06:50.303Z,21.63
2022-08-22T23:09:37.994Z,21.58
2022-08-22T23:12:17.932Z,21.56
2022-08-22T23:14:57.312Z,21.52
2022-08-22T23:17:31.037Z,21.48
2022-08-22T23:20:05.836Z,21.44
2022-08-22T23:22:41.678Z,21.43
2022-08-22T23:25:15.415Z,21.40
2022-08-22T23:27:52.572Z,21.37
2022-08-22T23:30:27.724Z,21.34
2022-08-22T23:33:03.989Z,21.32
2022-08-22T23:35:37.616Z,21.31
2022-08-22T23:38:11.821Z,21.28
2022-08-22T23:40:48.229Z,21.28
2022-08-22T23:43:22.010Z,21.23
2022-08-22T23:45:57.033Z,21.22
2022-08-22T23:48:33.353Z,21.21
2022-08-22T23:51:07.853Z,21.19
2022-08-22T23:53:41.787Z,21.17
2022-08-22T23:56:19.755Z,21.16
2022-08-22T23:58:53.675Z,21.15
